Strona główna
METAR-TAF:

METAR-TAF

Lotnisko :

Hrabstwo Franklin, Vermont, Stany Zjednoczone

Szerokość geograficzna: 44-56-25N, Długość geograficzna: 073-05-51W, wysokość: 69 m

Aktualna obserwacja pogody

Raport powstał 19 minut temu, godzina 01:55 UTC
Wiatr 3 kt od południe
Temperatura 1°C
Wilgotność 69%
Ciśnienie 1015 hPa
Widzialność: 16.1 km
bezchmurnie

METAR: KFSO 170155Z AUTO 19003KT 10SM CLR 01/M04 A2997 RMK AO2 T00081041

czas: 21:14 (02:14 UTC)


TAF: brakujący

Obserwacja i prognoza pogody dla ponad 4000 lotnisk (raport METAR i TAF).

Dostępne stacje oznaczono żółtymi i czerwonymi punktami na mapie.

Najedź kursorem aby zobaczyć nazwę stacji.

Kliknij aby zobaczyć obserwacje i prognozy pogody.

Aby zmienić mapę: kliknij na zielony przycisk z czarnym krzyżykiem, aby powiększyć; na zielony przycisk z myślnikiem, aby pomniejszyć; na zielone strzałki, aby przejść do map sąsiednich.


METAR-TAF: